Disclaimer

Please do not use the information listed here in-flight or in-navigation, as they are not provided to us by the airports but are provided by volunteers, so they might be outdated.

Search


Regions


Airport information page

Radio informations:
Tower (TWR) - 120.5 MHz
Ground (GND) - 121.7 MHz
Clearance delivery - 126.1 MHz
Automatic Terminal Information Service (ATIS) - 116.4 MHz
Approach/Departure (APP/DEP) - 118.2 MHz

Airport informations:
Latitude: 34° 56' 42.00" S
Longitude: 138° 31' 50.00" E
Elevation: 20 feet - 6 meters
Operating hours: N/A
Operating agency: Civil government, landing fees and diplomatic clearance may be required
Timezone: UTC+9:30(+10:30DT)
Fuel: Jet A1, without icing nhibitor.

100/130 MIL Spec, low lead, aviation gasoline (BLUE)

Runway information:
05/23 - 10171 x 148 feet< - >3100 x 45 meters
12/30 - 5420 x 148 feet< - >1652 x 45 meters

Recent METARs:
YPAD 142100Z 15007KT 9999 FEW035 14/07 Q1024 NOSIG
YPAD 142100Z 15007KT 9999 FEW035 14/07 Q1024 NOSIG
YPAD 142130Z 13008KT 9999 FEW035 16/06 Q1024 NOSIG

Airport on the map: